Terminal Aerodrome Forecast
Issued by NWS Cleveland, OH

Home | Current Version | Previous Version | Graphics & Text | Print | Product List | Glossary On
Versions: 1 2 3 4 5 6 7 8 9 10 11 12 13 14 15 16 17 18 19 20 21 22 23 24 25
000
FTUS41 KCLE 032000 AAB
TAFCAK
TAF AMD
KCAK 032015Z 0320/0418 19012KT 2SM -RA BR BKN008 OVC015
     FM032300 22012KT 1 1/2SM -RA BR OVC005 WS020/22040KT
     FM040200 23012KT 2SM -RA BR OVC006
     FM040700 24008KT 3SM -RASNPL BR OVC006
     FM040900 28012KT 2SM -SN BR BKN006 OVC012=

USA.gov is the U.S. government's official web portal to all federal, state and local government web resources and services.